sensor_id;sensor_type;location;lat;lon;timestamp;P1;durP1;ratioP1;P2;durP2;ratioP2
18320;SDS011;54904;54.350;18.664;2023-05-19T00:00:07;1.57;;;1.20;;
18320;SDS011;54904;54.350;18.664;2023-05-19T00:02:39;1.30;;;1.20;;
18320;SDS011;54904;54.350;18.664;2023-05-19T00:05:08;1.27;;;1.10;;
18320;SDS011;54904;54.350;18.664;2023-05-19T00:07:37;1.10;;;1.00;;
18320;SDS011;54904;54.350;18.664;2023-05-19T00:10:05;1.73;;;1.20;;
18320;SDS011;54904;54.350;18.664;2023-05-19T00:12:33;1.80;;;1.07;;
18320;SDS011;54904;54.350;18.664;2023-05-19T00:15:02;1.27;;;1.17;;
18320;SDS011;54904;54.350;18.664;2023-05-19T00:17:30;1.07;;;0.97;;
18320;SDS011;54904;54.350;18.664;2023-05-19T00:19:59;1.10;;;1.10;;
18320;SDS011;54904;54.350;18.664;2023-05-19T00:22:31;1.80;;;1.20;;
18320;SDS011;54904;54.350;18.664;2023-05-19T00:24:58;1.97;;;1.20;;
18320;SDS011;54904;54.350;18.664;2023-05-19T00:27:26;1.47;;;1.37;;
18320;SDS011;54904;54.350;18.664;2023-05-19T00:29:53;1.63;;;1.10;;
18320;SDS011;54904;54.350;18.664;2023-05-19T00:32:20;1.63;;;1.20;;
18320;SDS011;54904;54.350;18.664;2023-05-19T00:34:47;1.73;;;1.00;;
18320;SDS011;54904;54.350;18.664;2023-05-19T00:37:17;1.30;;;1.10;;
18320;SDS011;54904;54.350;18.664;2023-05-19T00:39:44;1.20;;;1.10;;
18320;SDS011;54904;54.350;18.664;2023-05-19T00:42:11;2.90;;;1.00;;
18320;SDS011;54904;54.350;18.664;2023-05-19T00:44:39;1.17;;;1.00;;
18320;SDS011;54904;54.350;18.664;2023-05-19T00:47:07;1.20;;;1.10;;
18320;SDS011;54904;54.350;18.664;2023-05-19T00:49:34;1.20;;;0.90;;
18320;SDS011;54904;54.350;18.664;2023-05-19T00:52:01;0.93;;;0.90;;
18320;SDS011;54904;54.350;18.664;2023-05-19T00:54:32;1.80;;;1.10;;
18320;SDS011;54904;54.350;18.664;2023-05-19T00:57:00;0.97;;;0.80;;
18320;SDS011;54904;54.350;18.664;2023-05-19T00:59:28;1.00;;;0.80;;
18320;SDS011;54904;54.350;18.664;2023-05-19T01:01:55;1.03;;;0.83;;
18320;SDS011;54904;54.350;18.664;2023-05-19T01:04:23;1.37;;;0.80;;
18320;SDS011;54904;54.350;18.664;2023-05-19T01:06:50;0.70;;;0.70;;
18320;SDS011;54904;54.350;18.664;2023-05-19T01:09:19;0.67;;;0.63;;
18320;SDS011;54904;54.350;18.664;2023-05-19T01:11:48;1.40;;;0.80;;
18320;SDS011;54904;54.350;18.664;2023-05-19T01:14:15;1.00;;;0.80;;
18320;SDS011;54904;54.350;18.664;2023-05-19T01:16:45;0.87;;;0.73;;
18320;SDS011;54904;54.350;18.664;2023-05-19T01:19:22;0.80;;;0.80;;
18320;SDS011;54904;54.350;18.664;2023-05-19T01:22:18;0.70;;;0.70;;
18320;SDS011;54904;54.350;18.664;2023-05-19T01:25:22;0.83;;;0.67;;
18320;SDS011;54904;54.350;18.664;2023-05-19T01:28:26;0.70;;;0.70;;
18320;SDS011;54904;54.350;18.664;2023-05-19T01:31:05;0.60;;;0.60;;
18320;SDS011;54904;54.350;18.664;2023-05-19T01:33:37;1.07;;;0.57;;
18320;SDS011;54904;54.350;18.664;2023-05-19T01:36:06;0.67;;;0.67;;
18320;SDS011;54904;54.350;18.664;2023-05-19T01:38:35;0.70;;;0.70;;
18320;SDS011;54904;54.350;18.664;2023-05-19T01:41:04;0.90;;;0.80;;
18320;SDS011;54904;54.350;18.664;2023-05-19T01:43:33;2.80;;;0.90;;
18320;SDS011;54904;54.350;18.664;2023-05-19T01:46:01;0.70;;;0.70;;
18320;SDS011;54904;54.350;18.664;2023-05-19T01:48:29;0.87;;;0.80;;
18320;SDS011;54904;54.350;18.664;2023-05-19T01:50:57;1.03;;;0.70;;
18320;SDS011;54904;54.350;18.664;2023-05-19T01:53:28;0.60;;;0.60;;
18320;SDS011;54904;54.350;18.664;2023-05-19T01:55:55;0.70;;;0.60;;
18320;SDS011;54904;54.350;18.664;2023-05-19T01:58:27;0.93;;;0.83;;
18320;SDS011;54904;54.350;18.664;2023-05-19T02:01:05;0.80;;;0.80;;
18320;SDS011;54904;54.350;18.664;2023-05-19T02:03:44;0.77;;;0.70;;
18320;SDS011;54904;54.350;18.664;2023-05-19T02:06:28;0.50;;;0.50;;
18320;SDS011;54904;54.350;18.664;2023-05-19T02:09:02;1.47;;;0.73;;
18320;SDS011;54904;54.350;18.664;2023-05-19T02:11:34;0.60;;;0.60;;
18320;SDS011;54904;54.350;18.664;2023-05-19T02:14:08;0.70;;;0.70;;
18320;SDS011;54904;54.350;18.664;2023-05-19T02:16:41;0.60;;;0.60;;
18320;SDS011;54904;54.350;18.664;2023-05-19T02:19:20;0.60;;;0.60;;
18320;SDS011;54904;54.350;18.664;2023-05-19T02:21:48;1.70;;;0.77;;
18320;SDS011;54904;54.350;18.664;2023-05-19T02:24:15;0.70;;;0.70;;
18320;SDS011;54904;54.350;18.664;2023-05-19T02:26:42;2.00;;;0.60;;
18320;SDS011;54904;54.350;18.664;2023-05-19T02:29:09;0.97;;;0.60;;
18320;SDS011;54904;54.350;18.664;2023-05-19T02:31:36;1.07;;;0.60;;
18320;SDS011;54904;54.350;18.664;2023-05-19T02:34:03;0.70;;;0.53;;
18320;SDS011;54904;54.350;18.664;2023-05-19T02:36:34;0.60;;;0.60;;
18320;SDS011;54904;54.350;18.664;2023-05-19T02:39:01;0.93;;;0.93;;
18320;SDS011;54904;54.350;18.664;2023-05-19T02:41:29;1.13;;;0.80;;
18320;SDS011;54904;54.350;18.664;2023-05-19T02:43:56;0.60;;;0.60;;
18320;SDS011;54904;54.350;18.664;2023-05-19T02:46:24;0.57;;;0.57;;
18320;SDS011;54904;54.350;18.664;2023-05-19T02:48:51;1.03;;;0.70;;
18320;SDS011;54904;54.350;18.664;2023-05-19T02:51:18;0.63;;;0.60;;
18320;SDS011;54904;54.350;18.664;2023-05-19T02:53:47;0.77;;;0.60;;
18320;SDS011;54904;54.350;18.664;2023-05-19T02:56:15;0.90;;;0.63;;
18320;SDS011;54904;54.350;18.664;2023-05-19T02:58:42;0.70;;;0.70;;
18320;SDS011;54904;54.350;18.664;2023-05-19T03:01:10;0.70;;;0.70;;
18320;SDS011;54904;54.350;18.664;2023-05-19T03:03:37;0.73;;;0.73;;
18320;SDS011;54904;54.350;18.664;2023-05-19T03:06:04;0.73;;;0.73;;
18320;SDS011;54904;54.350;18.664;2023-05-19T03:08:33;0.60;;;0.60;;
18320;SDS011;54904;54.350;18.664;2023-05-19T03:11:01;1.40;;;0.80;;
18320;SDS011;54904;54.350;18.664;2023-05-19T03:13:34;2.20;;;0.90;;
18320;SDS011;54904;54.350;18.664;2023-05-19T03:16:01;0.60;;;0.60;;
18320;SDS011;54904;54.350;18.664;2023-05-19T03:18:28;0.57;;;0.57;;
18320;SDS011;54904;54.350;18.664;2023-05-19T03:20:55;0.93;;;0.60;;
18320;SDS011;54904;54.350;18.664;2023-05-19T03:23:23;1.20;;;0.60;;
18320;SDS011;54904;54.350;18.664;2023-05-19T03:25:51;0.50;;;0.50;;
18320;SDS011;54904;54.350;18.664;2023-05-19T03:28:21;0.77;;;0.50;;
18320;SDS011;54904;54.350;18.664;2023-05-19T03:30:48;0.70;;;0.70;;
18320;SDS011;54904;54.350;18.664;2023-05-19T03:33:18;1.07;;;0.57;;
18320;SDS011;54904;54.350;18.664;2023-05-19T03:35:45;0.67;;;0.63;;
18320;SDS011;54904;54.350;18.664;2023-05-19T03:38:13;0.50;;;0.50;;
18320;SDS011;54904;54.350;18.664;2023-05-19T03:40:48;0.73;;;0.67;;
18320;SDS011;54904;54.350;18.664;2023-05-19T03:43:15;0.80;;;0.77;;
18320;SDS011;54904;54.350;18.664;2023-05-19T03:45:51;0.70;;;0.70;;
18320;SDS011;54904;54.350;18.664;2023-05-19T03:48:41;0.80;;;0.80;;
18320;SDS011;54904;54.350;18.664;2023-05-19T03:51:31;0.60;;;0.60;;
18320;SDS011;54904;54.350;18.664;2023-05-19T03:54:14;0.70;;;0.67;;
18320;SDS011;54904;54.350;18.664;2023-05-19T03:56:42;0.80;;;0.80;;
18320;SDS011;54904;54.350;18.664;2023-05-19T03:59:09;0.80;;;0.80;;
18320;SDS011;54904;54.350;18.664;2023-05-19T04:01:38;0.90;;;0.90;;
18320;SDS011;54904;54.350;18.664;2023-05-19T04:04:05;1.00;;;0.90;;
18320;SDS011;54904;54.350;18.664;2023-05-19T04:06:32;1.10;;;1.00;;
18320;SDS011;54904;54.350;18.664;2023-05-19T04:09:00;0.80;;;0.80;;
18320;SDS011;54904;54.350;18.664;2023-05-19T04:11:29;0.70;;;0.70;;
18320;SDS011;54904;54.350;18.664;2023-05-19T04:13:56;0.77;;;0.77;;
18320;SDS011;54904;54.350;18.664;2023-05-19T04:16:23;1.07;;;0.90;;
18320;SDS011;54904;54.350;18.664;2023-05-19T04:18:52;0.80;;;0.80;;
18320;SDS011;54904;54.350;18.664;2023-05-19T04:21:19;0.80;;;0.80;;
18320;SDS011;54904;54.350;18.664;2023-05-19T04:23:46;0.60;;;0.60;;
18320;SDS011;54904;54.350;18.664;2023-05-19T04:26:14;0.90;;;0.90;;
18320;SDS011;54904;54.350;18.664;2023-05-19T04:28:42;2.37;;;0.70;;
18320;SDS011;54904;54.350;18.664;2023-05-19T04:31:10;0.93;;;0.70;;
18320;SDS011;54904;54.350;18.664;2023-05-19T04:33:38;0.73;;;0.70;;
18320;SDS011;54904;54.350;18.664;2023-05-19T04:36:08;1.40;;;0.90;;
18320;SDS011;54904;54.350;18.664;2023-05-19T04:38:38;4.17;;;0.90;;
18320;SDS011;54904;54.350;18.664;2023-05-19T04:41:07;1.63;;;1.10;;
18320;SDS011;54904;54.350;18.664;2023-05-19T04:43:35;0.80;;;0.70;;
18320;SDS011;54904;54.350;18.664;2023-05-19T04:46:07;0.73;;;0.73;;
18320;SDS011;54904;54.350;18.664;2023-05-19T04:48:37;0.67;;;0.67;;
18320;SDS011;54904;54.350;18.664;2023-05-19T04:51:05;1.00;;;0.63;;
18320;SDS011;54904;54.350;18.664;2023-05-19T04:53:33;1.07;;;0.60;;
18320;SDS011;54904;54.350;18.664;2023-05-19T04:56:01;1.70;;;0.57;;
18320;SDS011;54904;54.350;18.664;2023-05-19T04:58:30;0.60;;;0.60;;
18320;SDS011;54904;54.350;18.664;2023-05-19T05:00:57;1.80;;;0.80;;
18320;SDS011;54904;54.350;18.664;2023-05-19T05:03:25;0.80;;;0.80;;
18320;SDS011;54904;54.350;18.664;2023-05-19T05:05:52;0.60;;;0.60;;
18320;SDS011;54904;54.350;18.664;2023-05-19T05:08:21;0.70;;;0.70;;
18320;SDS011;54904;54.350;18.664;2023-05-19T05:10:50;0.77;;;0.63;;
18320;SDS011;54904;54.350;18.664;2023-05-19T05:13:19;2.93;;;0.70;;
18320;SDS011;54904;54.350;18.664;2023-05-19T05:15:48;2.37;;;0.80;;
18320;SDS011;54904;54.350;18.664;2023-05-19T05:18:17;1.30;;;0.63;;
18320;SDS011;54904;54.350;18.664;2023-05-19T05:20:45;0.87;;;0.67;;
18320;SDS011;54904;54.350;18.664;2023-05-19T05:23:13;1.23;;;0.60;;
18320;SDS011;54904;54.350;18.664;2023-05-19T05:25:45;0.70;;;0.70;;
18320;SDS011;54904;54.350;18.664;2023-05-19T05:28:16;0.70;;;0.70;;
18320;SDS011;54904;54.350;18.664;2023-05-19T05:30:45;1.13;;;0.90;;
18320;SDS011;54904;54.350;18.664;2023-05-19T05:33:13;0.60;;;0.60;;
18320;SDS011;54904;54.350;18.664;2023-05-19T05:35:41;0.60;;;0.60;;
18320;SDS011;54904;54.350;18.664;2023-05-19T05:38:10;2.83;;;0.80;;
18320;SDS011;54904;54.350;18.664;2023-05-19T05:40:38;2.37;;;0.97;;
18320;SDS011;54904;54.350;18.664;2023-05-19T05:43:07;0.80;;;0.80;;
18320;SDS011;54904;54.350;18.664;2023-05-19T05:45:42;1.40;;;0.70;;
18320;SDS011;54904;54.350;18.664;2023-05-19T05:48:09;0.80;;;0.77;;
18320;SDS011;54904;54.350;18.664;2023-05-19T05:50:37;1.53;;;0.90;;
18320;SDS011;54904;54.350;18.664;2023-05-19T05:53:05;1.53;;;0.90;;
18320;SDS011;54904;54.350;18.664;2023-05-19T05:55:38;0.93;;;0.90;;
18320;SDS011;54904;54.350;18.664;2023-05-19T05:58:06;1.83;;;0.80;;
18320;SDS011;54904;54.350;18.664;2023-05-19T06:00:35;1.60;;;0.97;;
18320;SDS011;54904;54.350;18.664;2023-05-19T06:03:04;0.60;;;0.60;;
18320;SDS011;54904;54.350;18.664;2023-05-19T06:05:31;2.70;;;0.60;;
18320;SDS011;54904;54.350;18.664;2023-05-19T06:07:58;1.07;;;0.87;;
18320;SDS011;54904;54.350;18.664;2023-05-19T06:10:26;1.93;;;0.70;;
18320;SDS011;54904;54.350;18.664;2023-05-19T06:12:54;1.70;;;1.00;;
18320;SDS011;54904;54.350;18.664;2023-05-19T06:15:22;2.77;;;1.00;;
18320;SDS011;54904;54.350;18.664;2023-05-19T06:18:11;0.50;;;0.50;;
18320;SDS011;54904;54.350;18.664;2023-05-19T06:20:38;5.60;;;0.97;;
18320;SDS011;54904;54.350;18.664;2023-05-19T06:23:05;3.23;;;0.70;;
18320;SDS011;54904;54.350;18.664;2023-05-19T06:25:34;4.33;;;0.70;;
18320;SDS011;54904;54.350;18.664;2023-05-19T06:28:01;5.90;;;1.07;;
18320;SDS011;54904;54.350;18.664;2023-05-19T06:30:28;2.77;;;1.10;;
18320;SDS011;54904;54.350;18.664;2023-05-19T06:33:16;0.60;;;0.60;;
18320;SDS011;54904;54.350;18.664;2023-05-19T06:35:43;1.17;;;0.60;;
18320;SDS011;54904;54.350;18.664;2023-05-19T06:38:10;0.77;;;0.50;;
18320;SDS011;54904;54.350;18.664;2023-05-19T06:40:38;0.63;;;0.63;;
18320;SDS011;54904;54.350;18.664;2023-05-19T06:43:06;2.27;;;0.80;;
18320;SDS011;54904;54.350;18.664;2023-05-19T06:45:51;2.30;;;0.97;;
18320;SDS011;54904;54.350;18.664;2023-05-19T06:48:21;0.70;;;0.70;;
18320;SDS011;54904;54.350;18.664;2023-05-19T06:50:48;2.40;;;0.70;;
18320;SDS011;54904;54.350;18.664;2023-05-19T06:53:17;0.70;;;0.70;;
18320;SDS011;54904;54.350;18.664;2023-05-19T06:55:45;3.03;;;0.53;;
18320;SDS011;54904;54.350;18.664;2023-05-19T06:58:16;0.60;;;0.60;;
18320;SDS011;54904;54.350;18.664;2023-05-19T07:00:43;1.00;;;0.60;;
18320;SDS011;54904;54.350;18.664;2023-05-19T07:03:14;0.50;;;0.50;;
18320;SDS011;54904;54.350;18.664;2023-05-19T07:05:43;0.40;;;0.40;;
18320;SDS011;54904;54.350;18.664;2023-05-19T07:08:10;0.83;;;0.40;;
18320;SDS011;54904;54.350;18.664;2023-05-19T07:10:38;0.50;;;0.50;;
18320;SDS011;54904;54.350;18.664;2023-05-19T07:13:10;0.60;;;0.60;;
18320;SDS011;54904;54.350;18.664;2023-05-19T07:15:37;0.50;;;0.50;;
18320;SDS011;54904;54.350;18.664;2023-05-19T07:18:04;0.67;;;0.50;;
18320;SDS011;54904;54.350;18.664;2023-05-19T07:20:31;0.60;;;0.60;;
18320;SDS011;54904;54.350;18.664;2023-05-19T07:23:00;0.80;;;0.80;;
18320;SDS011;54904;54.350;18.664;2023-05-19T07:25:27;1.07;;;0.60;;
18320;SDS011;54904;54.350;18.664;2023-05-19T07:27:55;1.63;;;0.60;;
18320;SDS011;54904;54.350;18.664;2023-05-19T07:30:22;1.70;;;0.60;;
18320;SDS011;54904;54.350;18.664;2023-05-19T07:32:49;0.40;;;0.40;;
18320;SDS011;54904;54.350;18.664;2023-05-19T07:35:17;0.80;;;0.50;;
18320;SDS011;54904;54.350;18.664;2023-05-19T07:37:44;0.40;;;0.40;;
18320;SDS011;54904;54.350;18.664;2023-05-19T07:40:12;0.50;;;0.50;;
18320;SDS011;54904;54.350;18.664;2023-05-19T07:42:39;2.20;;;0.63;;
18320;SDS011;54904;54.350;18.664;2023-05-19T07:45:07;0.77;;;0.60;;
18320;SDS011;54904;54.350;18.664;2023-05-19T07:47:34;1.00;;;0.57;;
18320;SDS011;54904;54.350;18.664;2023-05-19T07:50:02;0.60;;;0.60;;
18320;SDS011;54904;54.350;18.664;2023-05-19T07:52:29;1.47;;;0.80;;
18320;SDS011;54904;54.350;18.664;2023-05-19T07:54:57;0.93;;;0.60;;
18320;SDS011;54904;54.350;18.664;2023-05-19T07:57:26;0.60;;;0.60;;
18320;SDS011;54904;54.350;18.664;2023-05-19T07:59:53;0.77;;;0.50;;
18320;SDS011;54904;54.350;18.664;2023-05-19T08:02:20;0.90;;;0.53;;
18320;SDS011;54904;54.350;18.664;2023-05-19T08:04:47;0.50;;;0.50;;
18320;SDS011;54904;54.350;18.664;2023-05-19T08:07:15;0.70;;;0.50;;
18320;SDS011;54904;54.350;18.664;2023-05-19T08:09:42;2.57;;;0.70;;
18320;SDS011;54904;54.350;18.664;2023-05-19T08:12:09;0.47;;;0.47;;
18320;SDS011;54904;54.350;18.664;2023-05-19T08:14:37;1.93;;;0.60;;
18320;SDS011;54904;54.350;18.664;2023-05-19T08:17:04;0.60;;;0.60;;
18320;SDS011;54904;54.350;18.664;2023-05-19T08:19:32;4.17;;;0.80;;
18320;SDS011;54904;54.350;18.664;2023-05-19T08:21:59;1.23;;;0.93;;
18320;SDS011;54904;54.350;18.664;2023-05-19T08:24:26;0.60;;;0.60;;
18320;SDS011;54904;54.350;18.664;2023-05-19T08:26:54;1.13;;;0.80;;
18320;SDS011;54904;54.350;18.664;2023-05-19T08:29:21;2.10;;;0.77;;
18320;SDS011;54904;54.350;18.664;2023-05-19T08:31:50;4.60;;;0.60;;
18320;SDS011;54904;54.350;18.664;2023-05-19T08:34:17;0.73;;;0.67;;
18320;SDS011;54904;54.350;18.664;2023-05-19T08:36:44;1.00;;;0.80;;
18320;SDS011;54904;54.350;18.664;2023-05-19T08:39:12;0.93;;;0.50;;
18320;SDS011;54904;54.350;18.664;2023-05-19T08:41:40;1.83;;;0.60;;
18320;SDS011;54904;54.350;18.664;2023-05-19T08:44:07;0.50;;;0.50;;
18320;SDS011;54904;54.350;18.664;2023-05-19T08:46:35;0.47;;;0.47;;
18320;SDS011;54904;54.350;18.664;2023-05-19T08:49:07;4.13;;;0.70;;
18320;SDS011;54904;54.350;18.664;2023-05-19T08:51:39;0.67;;;0.60;;
18320;SDS011;54904;54.350;18.664;2023-05-19T08:54:13;3.80;;;0.90;;
18320;SDS011;54904;54.350;18.664;2023-05-19T08:56:42;1.03;;;0.83;;
18320;SDS011;54904;54.350;18.664;2023-05-19T08:59:10;1.37;;;0.83;;
18320;SDS011;54904;54.350;18.664;2023-05-19T09:01:39;5.50;;;0.90;;
18320;SDS011;54904;54.350;18.664;2023-05-19T09:04:11;1.03;;;0.70;;
18320;SDS011;54904;54.350;18.664;2023-05-19T09:06:39;12.10;;;1.13;;
18320;SDS011;54904;54.350;18.664;2023-05-19T09:09:06;0.93;;;0.60;;
18320;SDS011;54904;54.350;18.664;2023-05-19T09:11:35;1.87;;;0.90;;
18320;SDS011;54904;54.350;18.664;2023-05-19T09:14:02;2.77;;;0.70;;
18320;SDS011;54904;54.350;18.664;2023-05-19T09:16:30;1.57;;;0.90;;
18320;SDS011;54904;54.350;18.664;2023-05-19T09:18:58;6.17;;;1.20;;
18320;SDS011;54904;54.350;18.664;2023-05-19T09:21:27;2.90;;;1.10;;
18320;SDS011;54904;54.350;18.664;2023-05-19T09:23:56;2.47;;;1.33;;
18320;SDS011;54904;54.350;18.664;2023-05-19T09:26:23;4.13;;;1.50;;
18320;SDS011;54904;54.350;18.664;2023-05-19T09:29:01;2.47;;;1.20;;
18320;SDS011;54904;54.350;18.664;2023-05-19T09:31:35;0.70;;;0.70;;
18320;SDS011;54904;54.350;18.664;2023-05-19T09:34:02;1.63;;;1.10;;
18320;SDS011;54904;54.350;18.664;2023-05-19T09:36:31;1.60;;;1.00;;
18320;SDS011;54904;54.350;18.664;2023-05-19T09:38:58;2.07;;;1.10;;
18320;SDS011;54904;54.350;18.664;2023-05-19T09:41:25;1.03;;;0.90;;
18320;SDS011;54904;54.350;18.664;2023-05-19T09:43:53;2.00;;;0.70;;
18320;SDS011;54904;54.350;18.664;2023-05-19T09:46:23;2.13;;;1.13;;
18320;SDS011;54904;54.350;18.664;2023-05-19T09:48:55;2.47;;;1.10;;
18320;SDS011;54904;54.350;18.664;2023-05-19T09:51:23;1.40;;;0.70;;
18320;SDS011;54904;54.350;18.664;2023-05-19T09:53:52;3.63;;;1.30;;
18320;SDS011;54904;54.350;18.664;2023-05-19T09:56:19;1.60;;;0.80;;
18320;SDS011;54904;54.350;18.664;2023-05-19T09:58:47;1.03;;;0.73;;
18320;SDS011;54904;54.350;18.664;2023-05-19T10:01:15;1.53;;;1.00;;
18320;SDS011;54904;54.350;18.664;2023-05-19T10:03:43;1.97;;;0.87;;
18320;SDS011;54904;54.350;18.664;2023-05-19T10:06:11;2.30;;;0.77;;
18320;SDS011;54904;54.350;18.664;2023-05-19T10:08:39;2.00;;;1.00;;
18320;SDS011;54904;54.350;18.664;2023-05-19T10:11:09;3.27;;;1.10;;
18320;SDS011;54904;54.350;18.664;2023-05-19T10:13:37;0.90;;;0.90;;
18320;SDS011;54904;54.350;18.664;2023-05-19T10:16:05;2.00;;;1.00;;
18320;SDS011;54904;54.350;18.664;2023-05-19T10:18:33;1.20;;;0.93;;
18320;SDS011;54904;54.350;18.664;2023-05-19T10:21:01;2.67;;;0.90;;
18320;SDS011;54904;54.350;18.664;2023-05-19T10:23:28;1.17;;;0.87;;
18320;SDS011;54904;54.350;18.664;2023-05-19T10:25:56;3.63;;;1.03;;
18320;SDS011;54904;54.350;18.664;2023-05-19T10:28:32;0.70;;;0.70;;
18320;SDS011;54904;54.350;18.664;2023-05-19T10:31:03;3.80;;;1.50;;
18320;SDS011;54904;54.350;18.664;2023-05-19T10:33:35;4.97;;;0.97;;
18320;SDS011;54904;54.350;18.664;2023-05-19T10:36:14;2.70;;;0.77;;
18320;SDS011;54904;54.350;18.664;2023-05-19T10:39:01;1.47;;;1.00;;
18320;SDS011;54904;54.350;18.664;2023-05-19T10:41:33;3.53;;;0.93;;
18320;SDS011;54904;54.350;18.664;2023-05-19T10:44:16;1.87;;;1.30;;
18320;SDS011;54904;54.350;18.664;2023-05-19T10:46:53;2.00;;;1.10;;
18320;SDS011;54904;54.350;18.664;2023-05-19T10:49:20;2.03;;;1.10;;
18320;SDS011;54904;54.350;18.664;2023-05-19T10:51:47;2.00;;;0.90;;
18320;SDS011;54904;54.350;18.664;2023-05-19T10:54:15;3.00;;;0.80;;
18320;SDS011;54904;54.350;18.664;2023-05-19T10:56:45;0.80;;;0.63;;
18320;SDS011;54904;54.350;18.664;2023-05-19T11:02:02;1.63;;;0.70;;
18320;SDS011;54904;54.350;18.664;2023-05-19T11:04:44;1.47;;;0.80;;
18320;SDS011;54904;54.350;18.664;2023-05-19T11:07:14;0.90;;;0.90;;
18320;SDS011;54904;54.350;18.664;2023-05-19T11:09:46;2.50;;;1.10;;
18320;SDS011;54904;54.350;18.664;2023-05-19T11:12:18;3.03;;;1.10;;
18320;SDS011;54904;54.350;18.664;2023-05-19T11:14:48;1.17;;;0.90;;
18320;SDS011;54904;54.350;18.664;2023-05-19T11:17:18;0.93;;;0.80;;
18320;SDS011;54904;54.350;18.664;2023-05-19T11:19:51;1.03;;;1.03;;
18320;SDS011;54904;54.350;18.664;2023-05-19T11:22:21;1.17;;;0.90;;
18320;SDS011;54904;54.350;18.664;2023-05-19T11:24:50;1.93;;;1.17;;
18320;SDS011;54904;54.350;18.664;2023-05-19T11:27:19;2.77;;;0.97;;
18320;SDS011;54904;54.350;18.664;2023-05-19T11:29:49;2.57;;;1.03;;
18320;SDS011;54904;54.350;18.664;2023-05-19T11:32:18;2.13;;;1.20;;
18320;SDS011;54904;54.350;18.664;2023-05-19T11:34:46;1.40;;;0.80;;
18320;SDS011;54904;54.350;18.664;2023-05-19T11:37:14;3.27;;;0.80;;
18320;SDS011;54904;54.350;18.664;2023-05-19T11:39:41;1.60;;;1.00;;
18320;SDS011;54904;54.350;18.664;2023-05-19T11:42:10;0.80;;;0.80;;
18320;SDS011;54904;54.350;18.664;2023-05-19T11:44:37;0.60;;;0.60;;
18320;SDS011;54904;54.350;18.664;2023-05-19T11:47:06;0.60;;;0.60;;
18320;SDS011;54904;54.350;18.664;2023-05-19T11:49:34;1.17;;;0.50;;
18320;SDS011;54904;54.350;18.664;2023-05-19T11:52:01;0.97;;;0.60;;
18320;SDS011;54904;54.350;18.664;2023-05-19T11:54:30;0.50;;;0.50;;
18320;SDS011;54904;54.350;18.664;2023-05-19T11:56:59;0.50;;;0.50;;
18320;SDS011;54904;54.350;18.664;2023-05-19T11:59:30;0.70;;;0.70;;
18320;SDS011;54904;54.350;18.664;2023-05-19T12:02:01;0.50;;;0.50;;
18320;SDS011;54904;54.350;18.664;2023-05-19T12:04:41;0.60;;;0.60;;
18320;SDS011;54904;54.350;18.664;2023-05-19T12:07:09;0.70;;;0.60;;
18320;SDS011;54904;54.350;18.664;2023-05-19T12:09:37;0.80;;;0.50;;
18320;SDS011;54904;54.350;18.664;2023-05-19T12:12:05;1.03;;;0.60;;
18320;SDS011;54904;54.350;18.664;2023-05-19T12:14:32;1.10;;;0.60;;
18320;SDS011;54904;54.350;18.664;2023-05-19T12:17:08;0.60;;;0.50;;
18320;SDS011;54904;54.350;18.664;2023-05-19T12:19:36;1.33;;;0.60;;
18320;SDS011;54904;54.350;18.664;2023-05-19T12:22:06;0.53;;;0.53;;
18320;SDS011;54904;54.350;18.664;2023-05-19T12:24:33;0.83;;;0.40;;
18320;SDS011;54904;54.350;18.664;2023-05-19T12:27:06;1.13;;;0.40;;
18320;SDS011;54904;54.350;18.664;2023-05-19T12:29:36;0.57;;;0.57;;
18320;SDS011;54904;54.350;18.664;2023-05-19T12:32:04;0.87;;;0.60;;
18320;SDS011;54904;54.350;18.664;2023-05-19T12:34:34;0.40;;;0.40;;
18320;SDS011;54904;54.350;18.664;2023-05-19T12:37:02;0.50;;;0.50;;
18320;SDS011;54904;54.350;18.664;2023-05-19T12:39:31;0.50;;;0.40;;
18320;SDS011;54904;54.350;18.664;2023-05-19T12:42:02;2.10;;;0.77;;
18320;SDS011;54904;54.350;18.664;2023-05-19T12:44:35;0.77;;;0.60;;
18320;SDS011;54904;54.350;18.664;2023-05-19T12:47:03;1.43;;;0.70;;
18320;SDS011;54904;54.350;18.664;2023-05-19T12:49:32;0.87;;;0.70;;
18320;SDS011;54904;54.350;18.664;2023-05-19T12:52:00;2.03;;;0.70;;
18320;SDS011;54904;54.350;18.664;2023-05-19T12:54:32;1.80;;;0.80;;
18320;SDS011;54904;54.350;18.664;2023-05-19T12:57:00;0.60;;;0.60;;
18320;SDS011;54904;54.350;18.664;2023-05-19T12:59:30;0.87;;;0.70;;
18320;SDS011;54904;54.350;18.664;2023-05-19T13:02:00;1.60;;;0.90;;
18320;SDS011;54904;54.350;18.664;2023-05-19T13:04:27;0.97;;;0.90;;
18320;SDS011;54904;54.350;18.664;2023-05-19T13:06:54;1.07;;;1.00;;
18320;SDS011;54904;54.350;18.664;2023-05-19T13:09:21;0.90;;;0.90;;
18320;SDS011;54904;54.350;18.664;2023-05-19T13:11:50;1.13;;;0.70;;
18320;SDS011;54904;54.350;18.664;2023-05-19T13:14:18;1.27;;;1.20;;
18320;SDS011;54904;54.350;18.664;2023-05-19T13:16:45;1.03;;;1.00;;
18320;SDS011;54904;54.350;18.664;2023-05-19T13:19:13;1.50;;;1.10;;
18320;SDS011;54904;54.350;18.664;2023-05-19T13:21:41;1.97;;;1.10;;
18320;SDS011;54904;54.350;18.664;2023-05-19T13:24:10;1.27;;;1.10;;
18320;SDS011;54904;54.350;18.664;2023-05-19T13:26:37;1.63;;;1.30;;
18320;SDS011;54904;54.350;18.664;2023-05-19T13:29:07;1.43;;;1.00;;
18320;SDS011;54904;54.350;18.664;2023-05-19T13:31:36;0.90;;;0.80;;
18320;SDS011;54904;54.350;18.664;2023-05-19T13:34:03;1.00;;;1.00;;
18320;SDS011;54904;54.350;18.664;2023-05-19T13:36:30;1.77;;;1.10;;
18320;SDS011;54904;54.350;18.664;2023-05-19T13:38:59;0.73;;;0.73;;
18320;SDS011;54904;54.350;18.664;2023-05-19T13:41:26;0.67;;;0.67;;
18320;SDS011;54904;54.350;18.664;2023-05-19T13:43:55;0.80;;;0.80;;
18320;SDS011;54904;54.350;18.664;2023-05-19T13:46:24;0.70;;;0.70;;
18320;SDS011;54904;54.350;18.664;2023-05-19T13:48:51;0.97;;;0.87;;
18320;SDS011;54904;54.350;18.664;2023-05-19T13:51:18;0.70;;;0.70;;
18320;SDS011;54904;54.350;18.664;2023-05-19T13:53:46;0.80;;;0.80;;
18320;SDS011;54904;54.350;18.664;2023-05-19T13:56:13;0.80;;;0.80;;
18320;SDS011;54904;54.350;18.664;2023-05-19T13:58:40;0.70;;;0.70;;
18320;SDS011;54904;54.350;18.664;2023-05-19T14:01:07;0.60;;;0.60;;
18320;SDS011;54904;54.350;18.664;2023-05-19T14:03:35;1.47;;;1.07;;
18320;SDS011;54904;54.350;18.664;2023-05-19T14:06:03;0.77;;;0.77;;
18320;SDS011;54904;54.350;18.664;2023-05-19T14:08:30;2.30;;;1.00;;
18320;SDS011;54904;54.350;18.664;2023-05-19T14:10:57;0.70;;;0.70;;
18320;SDS011;54904;54.350;18.664;2023-05-19T14:13:24;1.13;;;1.03;;
18320;SDS011;54904;54.350;18.664;2023-05-19T14:15:51;1.13;;;0.90;;
18320;SDS011;54904;54.350;18.664;2023-05-19T14:18:19;0.97;;;0.97;;
18320;SDS011;54904;54.350;18.664;2023-05-19T14:20:47;2.00;;;0.90;;
18320;SDS011;54904;54.350;18.664;2023-05-19T14:23:14;0.97;;;0.80;;
18320;SDS011;54904;54.350;18.664;2023-05-19T14:25:44;1.13;;;0.83;;
18320;SDS011;54904;54.350;18.664;2023-05-19T14:28:11;0.87;;;0.87;;
18320;SDS011;54904;54.350;18.664;2023-05-19T14:30:38;1.57;;;0.80;;
18320;SDS011;54904;54.350;18.664;2023-05-19T14:33:05;0.90;;;0.90;;
18320;SDS011;54904;54.350;18.664;2023-05-19T14:35:33;1.13;;;1.00;;
18320;SDS011;54904;54.350;18.664;2023-05-19T14:38:01;0.87;;;0.73;;
18320;SDS011;54904;54.350;18.664;2023-05-19T14:40:29;1.43;;;0.80;;
18320;SDS011;54904;54.350;18.664;2023-05-19T14:42:56;1.37;;;1.17;;
18320;SDS011;54904;54.350;18.664;2023-05-19T14:45:23;0.80;;;0.80;;
18320;SDS011;54904;54.350;18.664;2023-05-19T14:47:50;1.17;;;0.93;;